Terminal Aerodrome Forecast
Issued by NWS

Home | Current Version | Previous Version | Text Only | Print | Product List | Glossary On
Versions: 1 2 3 4 5 6 7 8 9 10 11 12 13 14 15 16 17 18 19
000
FTUS43 KMPX 301700
TAFRNH
TAF
KRNH 301736Z 3018/3118 33006KT P6SM SCT030 OVC050
     FM302100 33012G19KT P6SM SCT025 OVC040
      TEMPO 3021/3024 BKN025
     FM310000 33016G26KT P6SM SCT025 BKN035
     FM310600 34012KT P6SM SKC=

USA.gov is the U.S. government's official web portal to all federal, state and local government web resources and services.